sensor_id;sensor_type;location;lat;lon;timestamp;P1;durP1;ratioP1;P2;durP2;ratioP2
65037;SDS011;51605;47.040;15.294;2022-09-06T00:01:40;2.83;;;2.30;;
65037;SDS011;51605;47.040;15.294;2022-09-06T00:04:06;3.17;;;2.28;;
65037;SDS011;51605;47.040;15.294;2022-09-06T00:06:32;3.10;;;2.10;;
65037;SDS011;51605;47.040;15.294;2022-09-06T00:08:58;3.20;;;2.40;;
65037;SDS011;51605;47.040;15.294;2022-09-06T00:11:23;3.13;;;2.30;;
65037;SDS011;51605;47.040;15.294;2022-09-06T00:13:49;3.05;;;2.17;;
65037;SDS011;51605;47.040;15.294;2022-09-06T00:16:19;2.72;;;2.30;;
65037;SDS011;51605;47.040;15.294;2022-09-06T00:18:47;3.00;;;2.22;;
65037;SDS011;51605;47.040;15.294;2022-09-06T00:23:43;2.95;;;2.03;;
65037;SDS011;51605;47.040;15.294;2022-09-06T00:26:09;3.08;;;2.10;;
65037;SDS011;51605;47.040;15.294;2022-09-06T00:28:35;3.10;;;2.20;;
65037;SDS011;51605;47.040;15.294;2022-09-06T00:33:56;2.65;;;2.10;;
65037;SDS011;51605;47.040;15.294;2022-09-06T00:36:22;2.70;;;2.20;;
65037;SDS011;51605;47.040;15.294;2022-09-06T00:38:48;2.83;;;2.10;;
65037;SDS011;51605;47.040;15.294;2022-09-06T00:41:14;2.80;;;2.10;;
65037;SDS011;51605;47.040;15.294;2022-09-06T00:46:08;2.78;;;1.88;;
65037;SDS011;51605;47.040;15.294;2022-09-06T00:48:38;2.83;;;2.00;;
65037;SDS011;51605;47.040;15.294;2022-09-06T00:51:07;2.65;;;2.00;;
65037;SDS011;51605;47.040;15.294;2022-09-06T00:53:35;3.22;;;2.10;;
65037;SDS011;51605;47.040;15.294;2022-09-06T00:56:01;2.75;;;1.90;;
65037;SDS011;51605;47.040;15.294;2022-09-06T00:58:27;2.97;;;1.95;;
65037;SDS011;51605;47.040;15.294;2022-09-06T01:00:53;3.30;;;2.25;;
65037;SDS011;51605;47.040;15.294;2022-09-06T01:03:19;2.97;;;2.00;;
65037;SDS011;51605;47.040;15.294;2022-09-06T01:05:55;3.10;;;1.90;;
65037;SDS011;51605;47.040;15.294;2022-09-06T01:08:42;3.35;;;2.20;;
65037;SDS011;51605;47.040;15.294;2022-09-06T01:14:21;2.50;;;1.83;;
65037;SDS011;51605;47.040;15.294;2022-09-06T01:17:06;2.50;;;1.80;;
65037;SDS011;51605;47.040;15.294;2022-09-06T01:30:47;2.22;;;1.80;;
65037;SDS011;51605;47.040;15.294;2022-09-06T01:33:27;2.47;;;1.88;;
65037;SDS011;51605;47.040;15.294;2022-09-06T01:36:05;2.58;;;1.80;;
65037;SDS011;51605;47.040;15.294;2022-09-06T01:38:35;2.60;;;1.90;;
65037;SDS011;51605;47.040;15.294;2022-09-06T01:41:01;2.00;;;1.67;;
65037;SDS011;51605;47.040;15.294;2022-09-06T01:43:28;2.70;;;1.92;;
65037;SDS011;51605;47.040;15.294;2022-09-06T02:05:31;2.10;;;1.65;;
65037;SDS011;51605;47.040;15.294;2022-09-06T02:08:15;2.58;;;1.70;;
65037;SDS011;51605;47.040;15.294;2022-09-06T02:11:06;2.25;;;1.80;;
65037;SDS011;51605;47.040;15.294;2022-09-06T02:13:37;2.35;;;1.60;;
65037;SDS011;51605;47.040;15.294;2022-09-06T02:16:17;2.30;;;1.60;;
65037;SDS011;51605;47.040;15.294;2022-09-06T02:18:53;2.95;;;2.17;;
65037;SDS011;51605;47.040;15.294;2022-09-06T02:21:26;2.60;;;1.85;;
65037;SDS011;51605;47.040;15.294;2022-09-06T02:23:58;2.33;;;1.60;;
65037;SDS011;51605;47.040;15.294;2022-09-06T02:26:26;2.45;;;1.65;;
65037;SDS011;51605;47.040;15.294;2022-09-06T02:28:56;2.42;;;1.75;;
65037;SDS011;51605;47.040;15.294;2022-09-06T02:33:50;2.17;;;1.60;;
65037;SDS011;51605;47.040;15.294;2022-09-06T02:36:17;2.25;;;1.73;;
65037;SDS011;51605;47.040;15.294;2022-09-06T02:38:43;2.35;;;1.63;;
65037;SDS011;51605;47.040;15.294;2022-09-06T02:41:10;2.25;;;1.63;;
65037;SDS011;51605;47.040;15.294;2022-09-06T02:43:38;2.05;;;1.50;;
65037;SDS011;51605;47.040;15.294;2022-09-06T02:46:06;2.60;;;1.88;;
65037;SDS011;51605;47.040;15.294;2022-09-06T02:48:31;2.08;;;1.55;;
65037;SDS011;51605;47.040;15.294;2022-09-06T02:51:00;2.50;;;1.73;;
65037;SDS011;51605;47.040;15.294;2022-09-06T02:53:27;1.90;;;1.50;;
65037;SDS011;51605;47.040;15.294;2022-09-06T02:55:52;2.13;;;1.70;;
65037;SDS011;51605;47.040;15.294;2022-09-06T02:58:18;1.90;;;1.70;;
65037;SDS011;51605;47.040;15.294;2022-09-06T03:00:44;2.03;;;1.60;;
65037;SDS011;51605;47.040;15.294;2022-09-06T03:03:09;2.38;;;1.70;;
65037;SDS011;51605;47.040;15.294;2022-09-06T03:05:36;2.20;;;1.63;;
65037;SDS011;51605;47.040;15.294;2022-09-06T03:08:02;1.70;;;1.50;;
65037;SDS011;51605;47.040;15.294;2022-09-06T03:10:27;2.00;;;1.70;;
65037;SDS011;51605;47.040;15.294;2022-09-06T03:12:53;2.17;;;1.60;;
65037;SDS011;51605;47.040;15.294;2022-09-06T03:15:18;1.95;;;1.60;;
65037;SDS011;51605;47.040;15.294;2022-09-06T03:17:44;2.22;;;1.70;;
65037;SDS011;51605;47.040;15.294;2022-09-06T03:20:10;2.47;;;1.70;;
65037;SDS011;51605;47.040;15.294;2022-09-06T03:22:37;2.08;;;1.75;;
65037;SDS011;51605;47.040;15.294;2022-09-06T03:25:07;2.90;;;1.63;;
65037;SDS011;51605;47.040;15.294;2022-09-06T03:27:34;2.15;;;1.60;;
65037;SDS011;51605;47.040;15.294;2022-09-06T03:29:59;2.03;;;1.80;;
65037;SDS011;51605;47.040;15.294;2022-09-06T03:32:25;2.20;;;1.70;;
65037;SDS011;51605;47.040;15.294;2022-09-06T03:34:51;2.77;;;1.83;;
65037;SDS011;51605;47.040;15.294;2022-09-06T03:37:17;2.57;;;1.70;;
65037;SDS011;51605;47.040;15.294;2022-09-06T03:39:43;3.47;;;1.70;;
65037;SDS011;51605;47.040;15.294;2022-09-06T03:42:09;2.33;;;1.60;;
65037;SDS011;51605;47.040;15.294;2022-09-06T03:44:34;2.10;;;1.52;;
65037;SDS011;51605;47.040;15.294;2022-09-06T03:47:00;2.73;;;1.70;;
65037;SDS011;51605;47.040;15.294;2022-09-06T03:49:26;1.73;;;1.45;;
65037;SDS011;51605;47.040;15.294;2022-09-06T03:51:51;2.87;;;1.40;;
65037;SDS011;51605;47.040;15.294;2022-09-06T03:54:17;2.13;;;1.43;;
65037;SDS011;51605;47.040;15.294;2022-09-06T03:56:42;2.30;;;1.60;;
65037;SDS011;51605;47.040;15.294;2022-09-06T03:59:08;2.58;;;1.77;;
65037;SDS011;51605;47.040;15.294;2022-09-06T04:01:34;2.20;;;1.60;;
65037;SDS011;51605;47.040;15.294;2022-09-06T04:03:59;2.15;;;1.60;;
65037;SDS011;51605;47.040;15.294;2022-09-06T04:06:25;2.00;;;1.60;;
65037;SDS011;51605;47.040;15.294;2022-09-06T04:08:51;2.05;;;1.75;;
65037;SDS011;51605;47.040;15.294;2022-09-06T04:11:17;1.83;;;1.40;;
65037;SDS011;51605;47.040;15.294;2022-09-06T04:13:43;1.70;;;1.40;;
65037;SDS011;51605;47.040;15.294;2022-09-06T04:16:09;1.77;;;1.50;;
65037;SDS011;51605;47.040;15.294;2022-09-06T04:18:35;1.53;;;1.37;;
65037;SDS011;51605;47.040;15.294;2022-09-06T04:21:00;1.80;;;1.50;;
65037;SDS011;51605;47.040;15.294;2022-09-06T04:23:26;2.65;;;1.50;;
65037;SDS011;51605;47.040;15.294;2022-09-06T04:25:53;1.92;;;1.58;;
65037;SDS011;51605;47.040;15.294;2022-09-06T04:28:20;1.80;;;1.60;;
65037;SDS011;51605;47.040;15.294;2022-09-06T04:30:53;1.98;;;1.52;;
65037;SDS011;51605;47.040;15.294;2022-09-06T04:33:20;2.17;;;1.50;;
65037;SDS011;51605;47.040;15.294;2022-09-06T04:35:50;1.70;;;1.40;;
65037;SDS011;51605;47.040;15.294;2022-09-06T04:38:17;1.80;;;1.50;;
65037;SDS011;51605;47.040;15.294;2022-09-06T04:40:42;1.75;;;1.30;;
65037;SDS011;51605;47.040;15.294;2022-09-06T04:43:08;1.60;;;1.37;;
65037;SDS011;51605;47.040;15.294;2022-09-06T04:45:33;1.58;;;1.38;;
65037;SDS011;51605;47.040;15.294;2022-09-06T04:47:59;1.93;;;1.60;;
65037;SDS011;51605;47.040;15.294;2022-09-06T04:50:25;2.38;;;1.60;;
65037;SDS011;51605;47.040;15.294;2022-09-06T04:52:50;2.28;;;1.52;;
65037;SDS011;51605;47.040;15.294;2022-09-06T04:55:16;1.92;;;1.50;;
65037;SDS011;51605;47.040;15.294;2022-09-06T04:57:41;1.63;;;1.47;;
65037;SDS011;51605;47.040;15.294;2022-09-06T05:00:07;1.70;;;1.30;;
65037;SDS011;51605;47.040;15.294;2022-09-06T05:02:33;1.48;;;1.30;;
65037;SDS011;51605;47.040;15.294;2022-09-06T05:04:59;2.00;;;1.60;;
65037;SDS011;51605;47.040;15.294;2022-09-06T05:07:25;1.77;;;1.50;;
65037;SDS011;51605;47.040;15.294;2022-09-06T05:09:50;2.07;;;1.50;;
65037;SDS011;51605;47.040;15.294;2022-09-06T05:12:16;1.85;;;1.50;;
65037;SDS011;51605;47.040;15.294;2022-09-06T05:14:43;1.88;;;1.45;;
65037;SDS011;51605;47.040;15.294;2022-09-06T05:17:08;1.87;;;1.40;;
65037;SDS011;51605;47.040;15.294;2022-09-06T05:19:34;1.40;;;1.30;;
65037;SDS011;51605;47.040;15.294;2022-09-06T05:22:00;3.90;;;1.50;;
65037;SDS011;51605;47.040;15.294;2022-09-06T05:24:25;1.90;;;1.60;;
65037;SDS011;51605;47.040;15.294;2022-09-06T05:26:51;1.90;;;1.50;;
65037;SDS011;51605;47.040;15.294;2022-09-06T05:29:16;1.93;;;1.40;;
65037;SDS011;51605;47.040;15.294;2022-09-06T05:31:42;1.92;;;1.52;;
65037;SDS011;51605;47.040;15.294;2022-09-06T05:34:08;2.17;;;1.60;;
65037;SDS011;51605;47.040;15.294;2022-09-06T05:36:34;1.50;;;1.40;;
65037;SDS011;51605;47.040;15.294;2022-09-06T05:39:00;1.75;;;1.50;;
65037;SDS011;51605;47.040;15.294;2022-09-06T05:41:26;1.37;;;1.27;;
65037;SDS011;51605;47.040;15.294;2022-09-06T05:43:51;1.40;;;1.30;;
65037;SDS011;51605;47.040;15.294;2022-09-06T05:46:17;1.67;;;1.57;;
65037;SDS011;51605;47.040;15.294;2022-09-06T05:48:43;1.50;;;1.40;;
65037;SDS011;51605;47.040;15.294;2022-09-06T05:51:16;1.88;;;1.40;;
65037;SDS011;51605;47.040;15.294;2022-09-06T05:53:42;1.73;;;1.42;;
65037;SDS011;51605;47.040;15.294;2022-09-06T05:56:10;1.52;;;1.38;;
65037;SDS011;51605;47.040;15.294;2022-09-06T05:58:37;1.52;;;1.42;;
65037;SDS011;51605;47.040;15.294;2022-09-06T06:03:50;1.60;;;1.40;;
65037;SDS011;51605;47.040;15.294;2022-09-06T06:06:16;1.70;;;1.60;;
65037;SDS011;51605;47.040;15.294;2022-09-06T06:08:42;1.60;;;1.40;;
65037;SDS011;51605;47.040;15.294;2022-09-06T06:11:08;1.83;;;1.40;;
65037;SDS011;51605;47.040;15.294;2022-09-06T06:13:33;2.33;;;1.30;;
65037;SDS011;51605;47.040;15.294;2022-09-06T06:16:03;2.15;;;1.58;;
65037;SDS011;51605;47.040;15.294;2022-09-06T06:18:33;1.52;;;1.42;;
65037;SDS011;51605;47.040;15.294;2022-09-06T06:23:55;1.88;;;1.70;;
65037;SDS011;51605;47.040;15.294;2022-09-06T06:26:22;1.83;;;1.52;;
65037;SDS011;51605;47.040;15.294;2022-09-06T06:28:49;1.70;;;1.40;;
65037;SDS011;51605;47.040;15.294;2022-09-06T06:31:15;1.42;;;1.30;;
65037;SDS011;51605;47.040;15.294;2022-09-06T06:33:41;1.55;;;1.40;;
65037;SDS011;51605;47.040;15.294;2022-09-06T06:38:40;1.60;;;1.50;;
65037;SDS011;51605;47.040;15.294;2022-09-06T06:41:07;1.65;;;1.40;;
65037;SDS011;51605;47.040;15.294;2022-09-06T06:43:34;1.88;;;1.48;;
65037;SDS011;51605;47.040;15.294;2022-09-06T06:46:15;1.90;;;1.70;;
65037;SDS011;51605;47.040;15.294;2022-09-06T06:48:43;1.52;;;1.30;;
65037;SDS011;51605;47.040;15.294;2022-09-06T06:51:10;1.92;;;1.60;;
65037;SDS011;51605;47.040;15.294;2022-09-06T06:53:37;2.13;;;1.50;;
65037;SDS011;51605;47.040;15.294;2022-09-06T06:56:13;3.47;;;2.10;;
65037;SDS011;51605;47.040;15.294;2022-09-06T06:58:57;2.30;;;1.80;;
65037;SDS011;51605;47.040;15.294;2022-09-06T07:01:25;4.03;;;1.88;;
65037;SDS011;51605;47.040;15.294;2022-09-06T07:03:52;5.63;;;2.60;;
65037;SDS011;51605;47.040;15.294;2022-09-06T07:06:18;6.53;;;2.92;;
65037;SDS011;51605;47.040;15.294;2022-09-06T07:08:44;7.40;;;3.05;;
65037;SDS011;51605;47.040;15.294;2022-09-06T07:11:11;14.40;;;4.03;;
65037;SDS011;51605;47.040;15.294;2022-09-06T07:13:37;11.05;;;4.32;;
65037;SDS011;51605;47.040;15.294;2022-09-06T07:16:07;19.17;;;4.90;;
65037;SDS011;51605;47.040;15.294;2022-09-06T07:18:33;19.17;;;4.50;;
65037;SDS011;51605;47.040;15.294;2022-09-06T07:20:59;20.13;;;4.90;;
65037;SDS011;51605;47.040;15.294;2022-09-06T07:23:24;22.63;;;5.28;;
65037;SDS011;51605;47.040;15.294;2022-09-06T07:25:50;16.45;;;4.32;;
65037;SDS011;51605;47.040;15.294;2022-09-06T07:28:16;13.90;;;4.78;;
65037;SDS011;51605;47.040;15.294;2022-09-06T07:30:41;13.35;;;4.20;;
65037;SDS011;51605;47.040;15.294;2022-09-06T07:33:07;13.77;;;4.57;;
65037;SDS011;51605;47.040;15.294;2022-09-06T07:35:32;12.17;;;4.50;;
65037;SDS011;51605;47.040;15.294;2022-09-06T07:37:59;10.67;;;4.40;;
65037;SDS011;51605;47.040;15.294;2022-09-06T07:40:26;15.13;;;4.60;;
65037;SDS011;51605;47.040;15.294;2022-09-06T07:42:56;17.17;;;4.20;;
65037;SDS011;51605;47.040;15.294;2022-09-06T07:45:22;11.20;;;3.97;;
65037;SDS011;51605;47.040;15.294;2022-09-06T07:47:52;12.30;;;4.65;;
65037;SDS011;51605;47.040;15.294;2022-09-06T07:50:19;12.82;;;4.22;;
65037;SDS011;51605;47.040;15.294;2022-09-06T07:52:45;13.13;;;4.30;;
65037;SDS011;51605;47.040;15.294;2022-09-06T07:55:10;9.37;;;4.03;;
65037;SDS011;51605;47.040;15.294;2022-09-06T07:57:36;9.50;;;4.03;;
65037;SDS011;51605;47.040;15.294;2022-09-06T08:00:02;10.27;;;3.95;;
65037;SDS011;51605;47.040;15.294;2022-09-06T08:04:55;14.48;;;4.10;;
65037;SDS011;51605;47.040;15.294;2022-09-06T08:07:21;13.98;;;4.25;;
65037;SDS011;51605;47.040;15.294;2022-09-06T08:09:48;9.18;;;3.85;;
65037;SDS011;51605;47.040;15.294;2022-09-06T08:12:15;9.93;;;4.18;;
65037;SDS011;51605;47.040;15.294;2022-09-06T08:14:41;13.80;;;4.10;;
65037;SDS011;51605;47.040;15.294;2022-09-06T08:17:07;10.43;;;3.93;;
65037;SDS011;51605;47.040;15.294;2022-09-06T08:19:32;10.57;;;3.83;;
65037;SDS011;51605;47.040;15.294;2022-09-06T08:21:58;10.13;;;4.05;;
65037;SDS011;51605;47.040;15.294;2022-09-06T08:24:24;9.80;;;3.90;;
65037;SDS011;51605;47.040;15.294;2022-09-06T08:26:50;11.02;;;3.97;;
65037;SDS011;51605;47.040;15.294;2022-09-06T08:29:15;11.53;;;3.90;;
65037;SDS011;51605;47.040;15.294;2022-09-06T08:34:08;8.75;;;3.70;;
65037;SDS011;51605;47.040;15.294;2022-09-06T08:36:36;8.68;;;4.38;;
65037;SDS011;51605;47.040;15.294;2022-09-06T08:39:03;11.77;;;3.70;;
65037;SDS011;51605;47.040;15.294;2022-09-06T08:41:43;9.77;;;3.70;;
65037;SDS011;51605;47.040;15.294;2022-09-06T08:46:59;8.77;;;3.70;;
65037;SDS011;51605;47.040;15.294;2022-09-06T08:49:38;9.63;;;4.00;;
65037;SDS011;51605;47.040;15.294;2022-09-06T09:00:33;6.60;;;3.35;;
65037;SDS011;51605;47.040;15.294;2022-09-06T09:03:08;6.63;;;3.33;;
65037;SDS011;51605;47.040;15.294;2022-09-06T09:05:35;7.38;;;3.53;;
65037;SDS011;51605;47.040;15.294;2022-09-06T09:10:46;6.57;;;3.78;;
65037;SDS011;51605;47.040;15.294;2022-09-06T09:13:37;7.75;;;3.17;;
65037;SDS011;51605;47.040;15.294;2022-09-06T09:15:59;7.60;;;3.40;;
65037;SDS011;51605;47.040;15.294;2022-09-06T09:18:27;6.18;;;3.60;;
65037;SDS011;51605;47.040;15.294;2022-09-06T09:21:03;8.23;;;3.55;;
65037;SDS011;51605;47.040;15.294;2022-09-06T09:23:29;9.05;;;3.75;;
65037;SDS011;51605;47.040;15.294;2022-09-06T09:25:58;8.02;;;3.80;;
65037;SDS011;51605;47.040;15.294;2022-09-06T09:28:27;7.95;;;3.55;;
65037;SDS011;51605;47.040;15.294;2022-09-06T09:30:54;6.97;;;3.72;;
65037;SDS011;51605;47.040;15.294;2022-09-06T09:33:21;9.85;;;4.00;;
65037;SDS011;51605;47.040;15.294;2022-09-06T09:36:01;7.25;;;3.53;;
65037;SDS011;51605;47.040;15.294;2022-09-06T09:38:44;7.03;;;3.42;;
65037;SDS011;51605;47.040;15.294;2022-09-06T09:41:29;7.50;;;3.10;;
65037;SDS011;51605;47.040;15.294;2022-09-06T09:44:01;6.20;;;3.60;;
65037;SDS011;51605;47.040;15.294;2022-09-06T09:46:32;7.55;;;3.50;;
65037;SDS011;51605;47.040;15.294;2022-09-06T09:49:01;5.57;;;2.95;;
65037;SDS011;51605;47.040;15.294;2022-09-06T09:51:34;5.72;;;3.10;;
65037;SDS011;51605;47.040;15.294;2022-09-06T09:54:07;5.90;;;3.13;;
65037;SDS011;51605;47.040;15.294;2022-09-06T09:59:21;5.85;;;3.38;;
65037;SDS011;51605;47.040;15.294;2022-09-06T10:01:58;6.97;;;2.90;;
65037;SDS011;51605;47.040;15.294;2022-09-06T10:04:29;5.70;;;3.25;;
65037;SDS011;51605;47.040;15.294;2022-09-06T10:07:10;6.63;;;3.42;;
65037;SDS011;51605;47.040;15.294;2022-09-06T10:09:45;5.68;;;3.17;;
65037;SDS011;51605;47.040;15.294;2022-09-06T10:12:30;5.18;;;3.13;;
65037;SDS011;51605;47.040;15.294;2022-09-06T10:14:58;7.85;;;3.25;;
65037;SDS011;51605;47.040;15.294;2022-09-06T10:17:29;5.32;;;3.00;;
65037;SDS011;51605;47.040;15.294;2022-09-06T10:20:12;5.13;;;2.95;;
65037;SDS011;51605;47.040;15.294;2022-09-06T10:33:36;4.50;;;2.80;;
65037;SDS011;51605;47.040;15.294;2022-09-06T10:36:10;5.95;;;3.20;;
65037;SDS011;51605;47.040;15.294;2022-09-06T10:38:53;5.15;;;3.20;;
65037;SDS011;51605;47.040;15.294;2022-09-06T10:47:16;5.05;;;3.13;;
65037;SDS011;51605;47.040;15.294;2022-09-06T10:49:47;5.10;;;2.83;;
65037;SDS011;51605;47.040;15.294;2022-09-06T10:52:21;4.13;;;2.93;;
65037;SDS011;51605;47.040;15.294;2022-09-06T10:54:51;3.90;;;2.80;;
65037;SDS011;51605;47.040;15.294;2022-09-06T10:57:24;4.88;;;3.10;;
65037;SDS011;51605;47.040;15.294;2022-09-06T10:59:57;4.72;;;3.17;;
65037;SDS011;51605;47.040;15.294;2022-09-06T11:05:04;6.35;;;3.10;;
65037;SDS011;51605;47.040;15.294;2022-09-06T11:07:41;4.53;;;3.03;;
65037;SDS011;51605;47.040;15.294;2022-09-06T11:15:35;3.95;;;2.88;;
65037;SDS011;51605;47.040;15.294;2022-09-06T11:18:24;6.93;;;3.20;;
65037;SDS011;51605;47.040;15.294;2022-09-06T11:34:51;4.57;;;3.00;;
65037;SDS011;51605;47.040;15.294;2022-09-06T11:37:27;3.80;;;2.92;;
65037;SDS011;51605;47.040;15.294;2022-09-06T11:50:16;4.47;;;2.92;;
65037;SDS011;51605;47.040;15.294;2022-09-06T11:55:40;3.75;;;2.72;;
65037;SDS011;51605;47.040;15.294;2022-09-06T12:00:40;4.05;;;2.60;;
65037;SDS011;51605;47.040;15.294;2022-09-06T12:03:07;3.93;;;2.83;;
65037;SDS011;51605;47.040;15.294;2022-09-06T12:06:12;4.18;;;2.70;;
65037;SDS011;51605;47.040;15.294;2022-09-06T12:08:38;4.90;;;2.90;;
65037;SDS011;51605;47.040;15.294;2022-09-06T12:11:20;4.45;;;2.70;;
65037;SDS011;51605;47.040;15.294;2022-09-06T12:16:20;3.15;;;2.67;;
65037;SDS011;51605;47.040;15.294;2022-09-06T12:21:55;3.90;;;2.93;;
65037;SDS011;51605;47.040;15.294;2022-09-06T12:24:01;3.58;;;2.83;;
65037;SDS011;51605;47.040;15.294;2022-09-06T12:29:16;4.13;;;2.77;;
65037;SDS011;51605;47.040;15.294;2022-09-06T12:31:58;3.30;;;2.55;;
65037;SDS011;51605;47.040;15.294;2022-09-06T12:34:27;3.13;;;2.53;;
65037;SDS011;51605;47.040;15.294;2022-09-06T12:37:04;4.60;;;3.00;;
65037;SDS011;51605;47.040;15.294;2022-09-06T12:39:32;5.03;;;2.67;;
65037;SDS011;51605;47.040;15.294;2022-09-06T12:42:19;4.28;;;2.97;;
65037;SDS011;51605;47.040;15.294;2022-09-06T12:44:46;4.20;;;2.83;;
65037;SDS011;51605;47.040;15.294;2022-09-06T12:55:26;3.40;;;2.63;;
65037;SDS011;51605;47.040;15.294;2022-09-06T12:57:56;3.45;;;2.45;;
65037;SDS011;51605;47.040;15.294;2022-09-06T13:00:24;3.63;;;2.60;;
65037;SDS011;51605;47.040;15.294;2022-09-06T13:05:23;3.50;;;2.42;;
65037;SDS011;51605;47.040;15.294;2022-09-06T13:07:54;3.65;;;2.67;;
65037;SDS011;51605;47.040;15.294;2022-09-06T13:10:23;3.30;;;2.55;;
65037;SDS011;51605;47.040;15.294;2022-09-06T13:12:51;3.10;;;2.60;;
65037;SDS011;51605;47.040;15.294;2022-09-06T13:15:21;3.42;;;2.75;;
65037;SDS011;51605;47.040;15.294;2022-09-06T13:17:52;3.08;;;2.55;;
65037;SDS011;51605;47.040;15.294;2022-09-06T13:20:38;3.20;;;2.22;;
65037;SDS011;51605;47.040;15.294;2022-09-06T13:23:06;2.88;;;2.47;;
65037;SDS011;51605;47.040;15.294;2022-09-06T13:25:46;3.28;;;2.67;;
65037;SDS011;51605;47.040;15.294;2022-09-06T13:28:24;2.85;;;2.40;;
65037;SDS011;51605;47.040;15.294;2022-09-06T13:33:34;3.65;;;2.58;;
65037;SDS011;51605;47.040;15.294;2022-09-06T13:41:01;3.38;;;2.90;;
65037;SDS011;51605;47.040;15.294;2022-09-06T13:43:28;3.42;;;2.80;;
65037;SDS011;51605;47.040;15.294;2022-09-06T13:48:30;3.67;;;2.63;;
65037;SDS011;51605;47.040;15.294;2022-09-06T13:50:56;3.03;;;2.50;;
65037;SDS011;51605;47.040;15.294;2022-09-06T13:53:22;4.28;;;2.60;;
65037;SDS011;51605;47.040;15.294;2022-09-06T13:55:48;3.55;;;2.55;;
65037;SDS011;51605;47.040;15.294;2022-09-06T13:58:15;3.13;;;2.60;;
65037;SDS011;51605;47.040;15.294;2022-09-06T14:00:40;3.15;;;2.70;;
65037;SDS011;51605;47.040;15.294;2022-09-06T14:03:07;3.60;;;2.57;;
65037;SDS011;51605;47.040;15.294;2022-09-06T14:05:35;2.72;;;2.50;;
65037;SDS011;51605;47.040;15.294;2022-09-06T14:08:03;2.70;;;2.40;;
65037;SDS011;51605;47.040;15.294;2022-09-06T14:10:28;3.05;;;2.33;;
65037;SDS011;51605;47.040;15.294;2022-09-06T14:12:54;2.88;;;2.50;;
65037;SDS011;51605;47.040;15.294;2022-09-06T14:15:20;3.60;;;2.50;;
65037;SDS011;51605;47.040;15.294;2022-09-06T14:17:45;3.67;;;2.30;;
65037;SDS011;51605;47.040;15.294;2022-09-06T14:20:11;3.23;;;2.47;;
65037;SDS011;51605;47.040;15.294;2022-09-06T14:22:37;3.03;;;2.33;;
65037;SDS011;51605;47.040;15.294;2022-09-06T14:25:03;4.13;;;2.60;;
65037;SDS011;51605;47.040;15.294;2022-09-06T14:27:31;2.60;;;2.22;;
65037;SDS011;51605;47.040;15.294;2022-09-06T14:29:56;2.83;;;2.35;;
65037;SDS011;51605;47.040;15.294;2022-09-06T14:32:22;3.47;;;2.50;;
65037;SDS011;51605;47.040;15.294;2022-09-06T14:34:48;3.20;;;2.67;;
65037;SDS011;51605;47.040;15.294;2022-09-06T14:37:14;2.53;;;2.33;;
65037;SDS011;51605;47.040;15.294;2022-09-06T14:42:48;3.35;;;2.50;;
65037;SDS011;51605;47.040;15.294;2022-09-06T14:45:13;2.83;;;2.30;;
65037;SDS011;51605;47.040;15.294;2022-09-06T14:47:39;2.97;;;2.40;;
65037;SDS011;51605;47.040;15.294;2022-09-06T14:50:05;3.40;;;2.40;;
65037;SDS011;51605;47.040;15.294;2022-09-06T14:52:31;3.97;;;2.20;;
65037;SDS011;51605;47.040;15.294;2022-09-06T14:54:57;3.37;;;2.57;;
65037;SDS011;51605;47.040;15.294;2022-09-06T14:57:22;2.50;;;2.30;;
65037;SDS011;51605;47.040;15.294;2022-09-06T14:59:48;3.47;;;2.40;;
65037;SDS011;51605;47.040;15.294;2022-09-06T15:02:14;2.50;;;2.25;;
65037;SDS011;51605;47.040;15.294;2022-09-06T15:04:39;2.83;;;2.20;;
65037;SDS011;51605;47.040;15.294;2022-09-06T15:07:06;3.00;;;2.30;;
65037;SDS011;51605;47.040;15.294;2022-09-06T15:09:34;3.10;;;2.35;;
65037;SDS011;51605;47.040;15.294;2022-09-06T15:12:00;2.92;;;2.28;;
65037;SDS011;51605;47.040;15.294;2022-09-06T15:14:27;3.03;;;2.57;;
65037;SDS011;51605;47.040;15.294;2022-09-06T15:16:54;2.60;;;2.30;;
65037;SDS011;51605;47.040;15.294;2022-09-06T15:19:23;2.95;;;2.38;;
65037;SDS011;51605;47.040;15.294;2022-09-06T15:21:50;2.70;;;2.40;;
65037;SDS011;51605;47.040;15.294;2022-09-06T15:24:18;2.78;;;2.47;;
65037;SDS011;51605;47.040;15.294;2022-09-06T15:26:44;2.63;;;2.40;;
65037;SDS011;51605;47.040;15.294;2022-09-06T15:29:10;2.85;;;2.13;;
65037;SDS011;51605;47.040;15.294;2022-09-06T15:31:38;2.45;;;2.17;;
65037;SDS011;51605;47.040;15.294;2022-09-06T15:34:05;3.22;;;2.33;;
65037;SDS011;51605;47.040;15.294;2022-09-06T15:36:32;2.80;;;2.30;;
65037;SDS011;51605;47.040;15.294;2022-09-06T15:38:58;3.17;;;2.40;;
65037;SDS011;51605;47.040;15.294;2022-09-06T15:41:26;3.30;;;2.47;;
65037;SDS011;51605;47.040;15.294;2022-09-06T15:43:54;2.92;;;2.30;;
65037;SDS011;51605;47.040;15.294;2022-09-06T15:46:44;3.13;;;2.40;;
65037;SDS011;51605;47.040;15.294;2022-09-06T15:49:07;2.60;;;2.20;;
65037;SDS011;51605;47.040;15.294;2022-09-06T15:51:36;2.70;;;2.25;;
65037;SDS011;51605;47.040;15.294;2022-09-06T15:56:31;2.63;;;2.38;;
65037;SDS011;51605;47.040;15.294;2022-09-06T15:58:57;2.50;;;2.17;;
65037;SDS011;51605;47.040;15.294;2022-09-06T16:01:23;2.67;;;2.40;;
65037;SDS011;51605;47.040;15.294;2022-09-06T16:03:54;2.75;;;2.38;;
65037;SDS011;51605;47.040;15.294;2022-09-06T16:06:32;2.33;;;2.13;;
65037;SDS011;51605;47.040;15.294;2022-09-06T16:09:07;2.40;;;2.20;;
65037;SDS011;51605;47.040;15.294;2022-09-06T16:11:38;2.60;;;2.10;;
65037;SDS011;51605;47.040;15.294;2022-09-06T16:14:05;2.40;;;2.20;;
65037;SDS011;51605;47.040;15.294;2022-09-06T16:16:36;2.38;;;2.17;;
65037;SDS011;51605;47.040;15.294;2022-09-06T16:19:03;2.55;;;2.28;;
65037;SDS011;51605;47.040;15.294;2022-09-06T16:21:30;2.50;;;2.22;;
65037;SDS011;51605;47.040;15.294;2022-09-06T16:23:58;3.15;;;2.40;;
65037;SDS011;51605;47.040;15.294;2022-09-06T16:26:26;4.45;;;2.10;;
65037;SDS011;51605;47.040;15.294;2022-09-06T16:28:56;2.38;;;2.17;;
65037;SDS011;51605;47.040;15.294;2022-09-06T16:31:22;2.65;;;2.20;;
65037;SDS011;51605;47.040;15.294;2022-09-06T16:33:48;2.38;;;2.17;;
65037;SDS011;51605;47.040;15.294;2022-09-06T16:36:15;2.80;;;2.50;;
65037;SDS011;51605;47.040;15.294;2022-09-06T16:38:41;2.90;;;2.17;;
65037;SDS011;51605;47.040;15.294;2022-09-06T16:41:11;2.30;;;2.10;;
65037;SDS011;51605;47.040;15.294;2022-09-06T16:43:41;2.30;;;2.10;;
65037;SDS011;51605;47.040;15.294;2022-09-06T16:46:07;2.45;;;2.25;;
65037;SDS011;51605;47.040;15.294;2022-09-06T16:48:34;2.72;;;2.30;;
65037;SDS011;51605;47.040;15.294;2022-09-06T16:51:33;2.58;;;2.38;;
65037;SDS011;51605;47.040;15.294;2022-09-06T16:53:53;3.30;;;2.20;;
65037;SDS011;51605;47.040;15.294;2022-09-06T16:56:20;2.70;;;2.40;;
65037;SDS011;51605;47.040;15.294;2022-09-06T16:58:51;2.72;;;2.25;;
65037;SDS011;51605;47.040;15.294;2022-09-06T17:01:21;2.60;;;2.30;;
65037;SDS011;51605;47.040;15.294;2022-09-06T17:03:49;2.50;;;2.20;;
65037;SDS011;51605;47.040;15.294;2022-09-06T17:06:15;2.47;;;2.15;;
65037;SDS011;51605;47.040;15.294;2022-09-06T17:08:44;3.00;;;2.22;;
65037;SDS011;51605;47.040;15.294;2022-09-06T17:11:14;2.60;;;2.28;;
65037;SDS011;51605;47.040;15.294;2022-09-06T17:13:42;2.55;;;2.22;;
65037;SDS011;51605;47.040;15.294;2022-09-06T17:16:09;2.65;;;2.40;;
65037;SDS011;51605;47.040;15.294;2022-09-06T17:18:54;2.70;;;2.17;;
65037;SDS011;51605;47.040;15.294;2022-09-06T17:21:20;2.65;;;2.10;;
65037;SDS011;51605;47.040;15.294;2022-09-06T17:23:47;2.50;;;2.17;;
65037;SDS011;51605;47.040;15.294;2022-09-06T17:26:14;2.25;;;2.05;;